Time;durP1;ratioP1;P1;durP2;ratioP2;P2;SDS_P1;SDS_P2;PMS_P1;PMS_P2;Temp;Humidity;BMP_temperature;BMP_pressure;BME280_temperature;BME280_humidity;BME280_pressure;Samples;Min_cycle;Max_cycle;Signal;HPM_P1;HPM_P2
2022/09/09 00:03:25;;;;;;;7.15;5.45;;;;;;;13.12;65.07;100326.81;3407823;80;22190;-81
2022/09/09 00:08:24;;;;;;;10.40;5.58;;;;;;;13.07;65.65;100320.27;3457383;80;20932;-81
2022/09/09 00:13:33;;;;;;;7.45;5.67;;;;;;;13.05;65.98;100323.77;3461197;80;21018;-81
2022/09/09 00:19:08;;;;;;;9.78;5.87;;;;;;;13.01;66.00;100325.94;3460609;80;22091;-81
2022/09/09 00:24:11;;;;;;;9.18;6.50;;;;;;;12.97;66.40;100315.49;3438475;80;21477;-81
2022/09/09 00:29:13;;;;;;;8.58;6.22;;;;;;;12.89;66.50;100315.91;3440571;80;21260;-81
2022/09/09 00:34:19;;;;;;;11.30;6.70;;;;;;;12.86;66.72;100307.20;3476202;80;20943;-81
2022/09/09 00:39:19;;;;;;;9.18;6.15;;;;;;;12.83;67.13;100302.88;3453293;80;20904;-81
2022/09/09 00:44:36;;;;;;;9.73;6.40;;;;;;;12.79;67.43;100298.53;3442605;80;20924;-80
2022/09/09 00:49:51;;;;;;;9.73;7.20;;;;;;;12.75;67.66;100296.76;3463415;79;20931;-80
2022/09/09 00:54:54;;;;;;;7.75;5.80;;;;;;;12.69;68.02;100299.38;3461269;80;22043;-80
2022/09/09 01:00:18;;;;;;;7.92;5.67;;;;;;;12.66;68.43;100295.45;3415380;81;20979;-81
2022/09/09 01:05:24;;;;;;;9.13;6.40;;;;;;;12.62;68.51;100298.48;3300620;84;21478;-81
2022/09/09 01:10:37;;;;;;;8.48;6.12;;;;;;;12.57;68.63;100299.80;3232494;86;21584;-83
2022/09/09 01:15:32;;;;;;;8.88;6.33;;;;;;;12.57;68.98;100303.70;3289926;86;21532;-83
2022/09/09 01:20:44;;;;;;;8.63;5.78;;;;;;;12.56;68.99;100299.34;3238064;85;23034;-83
2022/09/09 01:26:08;;;;;;;9.98;7.15;;;;;;;12.56;69.00;100288.05;3260711;86;21277;-83
2022/09/09 01:31:03;;;;;;;10.72;7.05;;;;;;;12.56;69.30;100282.39;3287589;86;21055;-82
2022/09/09 01:36:07;;;;;;;12.07;7.40;;;;;;;12.55;70.55;100277.17;3222682;85;20995;-81
2022/09/09 01:41:01;;;;;;;9.25;7.33;;;;;;;12.50;69.74;100281.09;3411530;81;21019;-81
2022/09/09 01:45:58;;;;;;;11.45;7.22;;;;;;;12.50;70.00;100274.58;3409484;81;21022;-83
2022/09/09 01:50:49;;;;;;;7.80;5.83;;;;;;;12.46;70.11;100281.93;3430578;81;21002;-83
2022/09/09 01:55:46;;;;;;;8.03;6.05;;;;;;;12.51;70.51;100280.65;3448954;81;20943;-84
2022/09/09 02:00:44;;;;;;;11.20;7.95;;;;;;;12.47;71.90;100277.16;3453753;81;21257;-83
2022/09/09 02:05:43;;;;;;;11.68;7.72;;;;;;;12.43;70.36;100275.42;3453879;81;20935;-83
2022/09/09 02:11:03;;;;;;;11.65;7.47;;;;;;;12.42;70.72;100274.98;3460616;81;20998;-83
2022/09/09 02:16:10;;;;;;;8.55;7.53;;;;;;;12.41;70.73;100278.44;3431287;81;22163;-83
2022/09/09 02:21:03;;;;;;;13.38;7.65;;;;;;;12.43;70.99;100279.34;3430104;81;20939;-83
2022/09/09 02:25:57;;;;;;;9.85;7.67;;;;;;;12.43;70.94;100275.42;3468959;81;20978;-83
2022/09/09 02:30:58;;;;;;;11.50;7.67;;;;;;;12.43;71.20;100275.42;3458797;81;21144;-83
2022/09/09 02:35:53;;;;;;;13.22;7.40;;;;;;;12.42;71.47;100274.98;3369764;81;20962;-83
2022/09/09 02:40:45;;;;;;;16.45;8.60;;;;;;;12.42;71.61;100276.72;3435963;81;21465;-83
2022/09/09 02:45:51;;;;;;;13.95;9.05;;;;;;;12.42;71.62;100278.89;3435717;81;21506;-83
2022/09/09 02:51:10;;;;;;;10.55;8.30;;;;;;;12.38;72.01;100274.55;3453276;81;20969;-83
2022/09/09 02:56:06;;;;;;;16.27;8.63;;;;;;;12.40;71.99;100275.41;3445049;82;21466;-82
2022/09/09 03:01:00;;;;;;;12.95;8.18;;;;;;;12.40;72.14;100282.79;3425235;82;21482;-82
2022/09/09 03:05:52;;;;;;;11.48;8.98;;;;;;;12.41;72.15;100277.13;3369022;82;20983;-80
2022/09/09 03:10:44;;;;;;;11.38;7.10;;;;;;;12.44;72.40;100282.81;3435368;81;20979;-80
2022/09/09 03:15:37;;;;;;;10.18;7.85;;;;;;;12.45;72.55;100281.52;3415740;82;21024;-83
2022/09/09 03:20:31;;;;;;;11.78;8.15;;;;;;;12.44;72.58;100277.15;3368469;82;20991;-80
2022/09/09 03:25:26;;;;;;;8.83;7.62;;;;;;;12.46;72.77;100276.72;3383759;81;21197;-80
2022/09/09 03:30:18;;;;;;;10.18;7.30;;;;;;;12.46;72.73;100276.72;3351810;81;20959;-80
2022/09/09 03:35:09;;;;;;;8.80;6.95;;;;;;;12.45;72.84;100268.48;3364418;81;20947;-80
2022/09/09 03:40:01;;;;;;;9.10;6.78;;;;;;;12.45;72.90;100272.39;3381722;82;21031;-80
2022/09/09 03:44:53;;;;;;;8.98;7.42;;;;;;;12.46;73.08;100263.68;3407937;81;21478;-82
2022/09/09 03:49:46;;;;;;;7.67;6.42;;;;;;;12.47;73.26;100265.44;3406478;82;21003;-82
2022/09/09 03:54:38;;;;;;;9.20;6.70;;;;;;;12.50;73.36;100260.23;3450608;83;20967;-83
2022/09/09 03:59:30;;;;;;;8.30;5.92;;;;;;;12.52;73.35;100258.49;3450220;80;21002;-83
2022/09/09 04:04:22;;;;;;;5.92;4.92;;;;;;;12.51;73.40;100262.40;3462201;80;20952;-82
2022/09/09 04:09:13;;;;;;;6.17;5.17;;;;;;;12.51;73.60;100264.56;3423789;80;20977;-83
2022/09/09 04:14:05;;;;;;;6.95;4.90;;;;;;;12.51;73.60;100260.66;3492621;80;21186;-83
2022/09/09 04:18:57;;;;;;;6.95;5.67;;;;;;;12.51;74.00;100261.95;3414002;80;20960;-81
2022/09/09 04:23:49;;;;;;;5.65;5.05;;;;;;;12.51;73.99;100264.56;3455363;80;20918;-83
2022/09/09 04:28:40;;;;;;;5.92;4.58;;;;;;;12.54;74.24;100275.01;3512534;80;21127;-83
2022/09/09 04:33:33;;;;;;;5.78;4.83;;;;;;;12.54;74.01;100271.09;3449457;80;21015;-83
2022/09/09 04:38:26;;;;;;;7.30;4.70;;;;;;;12.54;74.08;100275.01;3429554;80;21126;-83
2022/09/09 04:43:18;;;;;;;5.03;4.53;;;;;;;12.56;74.24;100271.10;3438510;80;20997;-83
2022/09/09 04:48:11;;;;;;;4.95;4.25;;;;;;;12.56;74.31;100262.84;3436622;80;21508;-83
2022/09/09 04:53:04;;;;;;;4.75;4.15;;;;;;;12.59;74.44;100264.16;3443134;79;21473;-83
2022/09/09 04:57:57;;;;;;;6.05;5.30;;;;;;;12.62;74.32;100271.54;3510981;79;21029;-83
2022/09/09 05:02:48;;;;;;;5.95;4.15;;;;;;;12.63;74.47;100273.30;3428324;81;22127;-83
2022/09/09 05:07:39;;;;;;;4.95;4.17;;;;;;;12.68;74.56;100281.97;3395857;81;20974;-83
2022/09/09 05:12:32;;;;;;;5.10;4.22;;;;;;;12.67;74.57;100275.03;3513114;79;20917;-83
2022/09/09 05:17:24;;;;;;;4.92;4.45;;;;;;;12.70;74.63;100285.48;3459755;80;20953;-83
2022/09/09 05:22:20;;;;;;;4.78;4.37;;;;;;;12.70;74.71;100284.17;3475374;79;20985;-83
2022/09/09 05:27:12;;;;;;;5.03;3.80;;;;;;;12.69;74.73;100283.72;3474553;80;21872;-83
2022/09/09 05:32:04;;;;;;;7.42;3.83;;;;;;;12.71;74.83;100285.89;3476125;80;20973;-83
2022/09/09 05:36:56;;;;;;;4.10;3.70;;;;;;;12.74;75.02;100289.38;3499509;79;20919;-84
2022/09/09 05:41:47;;;;;;;4.87;4.47;;;;;;;12.77;75.12;100293.75;3381912;81;21654;-83
2022/09/09 05:46:39;;;;;;;6.22;4.83;;;;;;;12.78;75.05;100289.81;3448420;82;21027;-84
2022/09/09 05:51:30;;;;;;;4.75;4.17;;;;;;;12.82;74.92;100295.03;3386231;82;22002;-84
2022/09/09 05:56:27;;;;;;;6.15;4.40;;;;;;;12.84;75.12;100286.36;3482953;80;20927;-84
2022/09/09 06:01:26;;;;;;;5.60;4.67;;;;;;;12.87;75.21;100291.56;3424591;81;21520;-84
2022/09/09 06:06:21;;;;;;;5.10;4.60;;;;;;;12.89;75.27;100296.34;3483787;80;21015;-84
2022/09/09 06:11:23;;;;;;;5.75;5.20;;;;;;;12.92;75.40;100301.56;3434394;80;21006;-84
2022/09/09 06:16:17;;;;;;;6.50;4.90;;;;;;;12.93;75.46;100303.32;3453026;80;21152;-84
2022/09/09 06:21:18;;;;;;;6.17;5.10;;;;;;;12.91;75.51;100310.28;3485137;80;21582;-84
2022/09/09 06:26:15;;;;;;;6.35;5.75;;;;;;;12.93;75.56;100309.84;3464756;80;21017;-84
2022/09/09 06:31:11;;;;;;;7.58;5.95;;;;;;;12.97;75.59;100319.85;3397421;82;21039;-84
2022/09/09 06:36:04;;;;;;;7.65;6.10;;;;;;;13.02;75.77;100316.81;3421448;81;20967;-84
2022/09/09 06:40:58;;;;;;;8.40;5.55;;;;;;;13.07;75.72;100323.32;3401061;82;21158;-84
2022/09/09 06:45:59;;;;;;;7.00;6.30;;;;;;;13.11;75.61;100326.36;3446219;80;20967;-84
2022/09/09 06:50:52;;;;;;;7.50;6.37;;;;;;;13.16;75.70;100329.84;3477144;80;20994;-84
2022/09/09 06:55:44;;;;;;;8.40;6.35;;;;;;;13.18;75.82;100329.44;3463937;80;21047;-83
2022/09/09 07:00:39;;;;;;;8.28;7.45;;;;;;;13.22;75.69;100335.09;3452893;81;21014;-83
2022/09/09 07:05:30;;;;;;;7.55;6.78;;;;;;;13.23;75.67;100335.50;3440676;80;22835;-88
2022/09/09 07:10:21;;;;;;;8.85;6.58;;;;;;;13.28;75.72;100334.20;3452432;80;20982;-87
2022/09/09 07:15:13;;;;;;;7.15;6.45;;;;;;;13.32;75.73;100335.56;3417450;81;20983;-91
2022/09/09 07:20:08;;;;;;;9.70;8.10;;;;;;;13.40;76.17;100338.60;3383698;81;21437;-87
2022/09/09 07:24:59;;;;;;;7.72;6.97;;;;;;;13.37;75.66;100341.20;3416355;81;21002;-88
2022/09/09 07:29:50;;;;;;;7.50;6.03;;;;;;;13.38;75.79;100350.77;3443903;80;21051;-87
2022/09/09 07:34:42;;;;;;;8.35;6.97;;;;;;;13.41;76.03;100358.60;3451172;80;20978;-94
2022/09/09 07:39:34;;;;;;;8.38;7.22;;;;;;;13.43;75.98;100367.30;3420275;81;21033;-86
2022/09/09 07:44:26;;;;;;;8.20;6.87;;;;;;;13.48;75.93;100365.56;3452504;80;21108;-90
2022/09/09 07:49:22;;;;;;;7.72;6.80;;;;;;;13.54;75.90;100365.13;3462338;80;21017;-94
2022/09/09 07:54:19;;;;;;;8.65;6.92;;;;;;;13.58;75.83;100363.39;3391708;82;21076;-95
2022/09/09 07:59:11;;;;;;;7.28;6.58;;;;;;;13.63;75.77;100365.56;3397835;82;21030;-86
2022/09/09 08:04:07;;;;;;;8.35;7.17;;;;;;;13.69;76.06;100375.98;3367433;81;21034;-94
2022/09/09 08:09:03;;;;;;;8.13;6.87;;;;;;;13.77;75.72;100381.23;3455154;82;21014;-94
2022/09/09 08:13:56;;;;;;;7.87;6.95;;;;;;;13.83;75.62;100385.56;3364840;82;20979;-93
2022/09/09 08:18:49;;;;;;;10.13;7.00;;;;;;;13.91;75.53;100385.99;3370469;82;21893;-90
2022/09/09 08:23:42;;;;;;;7.62;6.80;;;;;;;13.94;75.57;100382.48;3398865;81;21469;-92
2022/09/09 08:28:34;;;;;;;9.68;7.65;;;;;;;13.94;75.77;100379.02;3420805;82;21024;-95
2022/09/09 08:33:26;;;;;;;10.55;6.92;;;;;;;13.97;75.74;100387.72;3420359;81;20959;-89
2022/09/09 08:38:18;;;;;;;9.28;7.92;;;;;;;13.99;75.78;100393.80;3431232;81;20940;-91
2022/09/09 08:43:10;;;;;;;9.40;7.75;;;;;;;14.00;75.82;100399.45;3372049;82;21139;-93
2022/09/09 08:48:44;;;;;;;9.35;7.80;;;;;;;14.06;75.76;100402.52;3393618;81;22093;-95
2022/09/09 08:53:49;;;;;;;8.80;6.85;;;;;;;14.10;75.87;100395.95;3415583;81;20987;-91
2022/09/09 08:58:51;;;;;;;8.35;7.45;;;;;;;14.14;75.79;100409.02;3424089;81;22367;-91
2022/09/09 09:04:29;;;;;;;10.82;8.10;;;;;;;14.15;76.01;100415.97;3406937;82;20983;-92
2022/09/09 09:09:42;;;;;;;12.53;9.13;;;;;;;14.20;75.94;100414.22;3427836;80;21221;-92
2022/09/09 09:14:36;;;;;;;11.70;9.38;;;;;;;14.20;75.87;100415.52;3431525;81;21046;-91
2022/09/09 09:19:33;;;;;;;10.90;9.50;;;;;;;14.18;75.86;100423.81;3430938;81;21138;-93
2022/09/09 22:27:57;;;;;;;11.00;9.90;;;;;;;13.45;81.36;100609.73;3564647;77;20924;-72
2022/09/09 22:32:49;;;;;;;9.88;8.88;;;;;;;13.43;81.32;100611.06;3506721;79;21022;-73
2022/09/09 22:37:40;;;;;;;9.90;8.90;;;;;;;13.41;81.36;100614.52;3457199;80;20967;-72
2022/09/09 22:42:33;;;;;;;10.13;9.10;;;;;;;13.39;81.38;100617.13;3527092;79;20963;-72
2022/09/09 22:47:25;;;;;;;10.80;9.30;;;;;;;13.39;81.35;100618.88;3477696;79;22932;-72
2022/09/09 22:52:16;;;;;;;9.38;8.40;;;;;;;13.39;81.39;100617.56;3518201;79;20931;-72
2022/09/09 22:57:08;;;;;;;8.20;7.50;;;;;;;13.38;81.49;100621.03;3518085;79;20964;-72
2022/09/09 23:01:59;;;;;;;10.82;9.80;;;;;;;13.37;81.87;100612.77;3467998;79;21723;-72
2022/09/09 23:06:50;;;;;;;9.78;8.78;;;;;;;13.35;81.43;100600.57;3450824;79;20930;-72
2022/09/09 23:11:41;;;;;;;9.25;8.03;;;;;;;13.34;81.47;100591.42;3540493;80;20941;-72
2022/09/09 23:16:38;;;;;;;10.45;8.65;;;;;;;13.32;81.41;100595.36;3474479;81;20908;-72
2022/09/09 23:21:30;;;;;;;9.43;8.53;;;;;;;13.28;81.29;100588.33;3520711;80;20924;-72
2022/09/09 23:26:24;;;;;;;9.30;8.38;;;;;;;13.24;81.53;100583.97;3469738;80;20930;-72
2022/09/09 23:31:18;;;;;;;8.95;8.05;;;;;;;13.20;81.39;100582.22;3358874;82;20879;-72
2022/09/09 23:36:14;;;;;;;10.65;7.78;;;;;;;13.17;81.50;100579.59;3354669;83;21092;-72
2022/09/09 23:41:09;;;;;;;10.25;8.68;;;;;;;13.16;81.61;100578.73;3376961;82;20950;-72
2022/09/09 23:46:01;;;;;;;8.43;7.47;;;;;;;13.14;81.53;100583.08;3407749;83;20934;-72
2022/09/09 23:51:09;;;;;;;9.43;8.28;;;;;;;13.13;81.53;100583.06;3400854;83;20963;-72
